createdAt,value
2018-07-24T00:00:54.433Z,47.32
2018-07-24T00:02:03.851Z,47.42
2018-07-24T00:03:12.738Z,47.42
2018-07-24T00:04:22.395Z,47.61
2018-07-24T00:05:31.800Z,47.52
2018-07-24T00:06:41.206Z,47.61
2018-07-24T00:07:50.868Z,47.61
2018-07-24T00:09:00.024Z,47.71
2018-07-24T00:10:09.691Z,47.71
2018-07-24T00:11:19.643Z,47.71
2018-07-24T00:12:29.070Z,47.52
2018-07-24T00:13:38.223Z,47.42
2018-07-24T00:14:47.903Z,47.61
2018-07-24T00:15:56.794Z,47.61
2018-07-24T00:17:05.947Z,47.52
2018-07-24T00:18:15.095Z,47.71
2018-07-24T00:19:24.784Z,47.42
2018-07-24T00:20:34.196Z,47.61
2018-07-24T00:21:43.632Z,47.42
2018-07-24T00:22:53.064Z,47.42
2018-07-24T00:24:01.969Z,47.42
2018-07-24T00:25:11.377Z,47.52
2018-07-24T00:26:20.520Z,47.71
2018-07-24T00:27:30.177Z,47.71
2018-07-24T00:28:39.595Z,47.71
2018-07-24T00:29:48.745Z,47.71
2018-07-24T00:30:57.896Z,47.61
2018-07-24T00:32:07.348Z,47.71
2018-07-24T00:33:17.511Z,47.71
2018-07-24T00:34:26.917Z,47.42
2018-07-24T00:35:36.607Z,47.61
2018-07-24T00:36:45.750Z,47.61
2018-07-24T00:37:55.412Z,47.61
2018-07-24T00:39:04.828Z,47.52
2018-07-24T00:40:14.238Z,47.61
2018-07-24T00:41:23.652Z,47.71
2018-07-24T00:42:32.556Z,47.52
2018-07-24T00:43:41.956Z,47.61
2018-07-24T00:44:51.615Z,47.61
2018-07-24T00:46:01.275Z,47.61
2018-07-24T00:47:10.479Z,47.71
2018-07-24T00:48:20.157Z,47.52
2018-07-24T00:49:29.303Z,47.52
2018-07-24T00:50:38.710Z,47.42
2018-07-24T00:51:47.881Z,47.32
2018-07-24T00:52:57.544Z,47.42
2018-07-24T00:54:07.112Z,47.42
2018-07-24T00:55:17.283Z,47.23
2018-07-24T00:56:26.690Z,47.42
2018-07-24T00:57:36.345Z,47.32
2018-07-24T00:58:45.039Z,47.32
2018-07-24T00:59:54.452Z,47.81
2018-07-24T01:01:03.880Z,47.81
2018-07-24T01:02:13.279Z,47.42
2018-07-24T01:03:22.672Z,47.71
2018-07-24T01:04:32.337Z,47.71
2018-07-24T01:05:41.757Z,47.61
2018-07-24T01:06:51.164Z,47.61
2018-07-24T01:08:01.087Z,47.81
2018-07-24T01:09:09.977Z,47.88
2018-07-24T01:10:19.391Z,47.61
2018-07-24T01:11:28.284Z,47.91
2018-07-24T01:12:37.971Z,47.81
2018-07-24T01:13:47.381Z,47.91
2018-07-24T01:14:56.535Z,47.71
2018-07-24T01:16:05.688Z,47.81
2018-07-24T01:17:15.360Z,47.61
2018-07-24T01:18:25.043Z,47.61
2018-07-24T01:19:34.452Z,47.61
2018-07-24T01:20:44.124Z,47.81
2018-07-24T01:21:54.057Z,47.81
2018-07-24T01:23:03.218Z,47.91
2018-07-24T01:24:12.876Z,47.81
2018-07-24T01:25:21.763Z,47.61
2018-07-24T01:26:31.426Z,47.78
2018-07-24T01:27:40.827Z,47.61
2018-07-24T01:28:50.239Z,47.81
2018-07-24T01:29:59.410Z,47.59
2018-07-24T01:31:08.581Z,47.69
2018-07-24T01:32:17.735Z,48.08
2018-07-24T01:33:26.920Z,47.91
2018-07-24T01:34:36.335Z,47.88
2018-07-24T01:35:45.732Z,47.88
2018-07-24T01:36:55.158Z,48.18
2018-07-24T01:38:04.818Z,47.98
2018-07-24T01:39:13.709Z,47.88
2018-07-24T01:40:23.367Z,47.69
2018-07-24T01:41:32.774Z,47.78
2018-07-24T01:42:41.940Z,47.88
2018-07-24T01:43:51.340Z,47.88
2018-07-24T01:45:00.489Z,48.08
2018-07-24T01:46:09.635Z,48.18
2018-07-24T01:47:18.530Z,47.88
2018-07-24T01:48:28.199Z,48.18
2018-07-24T01:49:37.100Z,48.27
2018-07-24T01:50:46.764Z,47.88
2018-07-24T01:51:56.423Z,48.18
2018-07-24T01:53:05.602Z,48.18
2018-07-24T01:54:15.267Z,48.08
2018-07-24T01:55:24.416Z,48.18
2018-07-24T01:56:34.078Z,48.08
2018-07-24T01:57:43.233Z,48.18
2018-07-24T01:58:52.641Z,47.88
2018-07-24T02:00:02.075Z,48.08
2018-07-24T02:01:11.220Z,48.18
2018-07-24T02:02:20.372Z,48.18
2018-07-24T02:03:29.533Z,47.88
2018-07-24T02:04:38.700Z,48.18
2018-07-24T02:05:48.096Z,47.98
2018-07-24T02:06:57.522Z,47.88
2018-07-24T02:08:06.667Z,47.98
2018-07-24T02:09:16.335Z,47.88
2018-07-24T02:10:26.003Z,47.98
2018-07-24T02:11:35.423Z,47.98
2018-07-24T02:12:44.570Z,47.88
2018-07-24T02:13:53.576Z,48.18
2018-07-24T02:15:03.242Z,47.88
2018-07-24T02:16:12.901Z,48.08
2018-07-24T02:17:22.306Z,48.08
2018-07-24T02:18:31.206Z,47.98
2018-07-24T02:19:40.631Z,48.18
2018-07-24T02:20:49.774Z,48.18
2018-07-24T02:21:58.925Z,48.18
2018-07-24T02:23:08.085Z,48.08
2018-07-24T02:24:17.231Z,48.08
2018-07-24T02:25:26.628Z,47.88
2018-07-24T02:26:36.295Z,48.08
2018-07-24T02:27:45.452Z,48.18
2018-07-24T02:28:55.126Z,47.88
2018-07-24T02:30:04.287Z,48.18
2018-07-24T02:31:13.731Z,48.08
2018-07-24T02:32:23.401Z,48.27
2018-07-24T02:33:32.809Z,48.75
2018-07-24T02:34:42.481Z,48.66
2018-07-24T02:35:52.164Z,48.27
2018-07-24T02:37:01.569Z,48.37
2018-07-24T02:38:10.459Z,48.47
2018-07-24T02:39:19.861Z,48.66
2018-07-24T02:40:29.538Z,48.47
2018-07-24T02:41:39.210Z,48.75
2018-07-24T02:42:48.373Z,48.57
2018-07-24T02:43:57.280Z,48.57
2018-07-24T02:45:06.940Z,48.66
2018-07-24T02:46:16.603Z,48.57
2018-07-24T02:47:26.013Z,48.57
2018-07-24T02:48:35.164Z,48.47
2018-07-24T02:49:45.127Z,48.37
2018-07-24T02:50:54.800Z,48.57
2018-07-24T02:52:04.485Z,48.47
2018-07-24T02:53:14.170Z,48.57
2018-07-24T02:54:23.864Z,48.57
2018-07-24T02:55:33.793Z,48.57
2018-07-24T02:56:43.203Z,48.66
2018-07-24T02:59:02.314Z,48.57
2018-07-24T03:00:11.480Z,48.37
2018-07-24T03:01:20.633Z,48.27
2018-07-24T03:02:30.036Z,48.37
2018-07-24T03:03:39.964Z,48.64
2018-07-24T03:04:49.375Z,48.47
2018-07-24T03:05:58.803Z,48.37
2018-07-24T03:07:08.476Z,48.08
2018-07-24T03:08:17.880Z,48.57
2018-07-24T03:09:27.292Z,48.66
2018-07-24T03:10:36.704Z,48.18
2018-07-24T03:11:46.133Z,48.54
2018-07-24T03:12:56.149Z,48.47
2018-07-24T03:14:05.560Z,48.37
2018-07-24T03:15:15.234Z,48.27
2018-07-24T03:16:24.899Z,48.25
2018-07-24T03:17:33.966Z,48.37
2018-07-24T03:18:43.387Z,48.37
2018-07-24T03:19:53.073Z,48.47
2018-07-24T03:21:01.968Z,48.54
2018-07-24T03:22:11.129Z,48.44
2018-07-24T03:23:20.523Z,48.57
2018-07-24T03:24:30.181Z,48.66
2018-07-24T03:25:39.677Z,48.35
2018-07-24T03:26:49.250Z,48.75
2018-07-24T03:27:59.280Z,48.75
2018-07-24T03:29:08.259Z,48.35
2018-07-24T03:30:17.708Z,48.57
2018-07-24T03:31:27.113Z,48.27
2018-07-24T03:32:36.539Z,48.37
2018-07-24T03:33:45.947Z,48.57
2018-07-24T03:34:55.880Z,48.44
2018-07-24T03:36:05.282Z,48.35
2018-07-24T03:37:15.215Z,48.35
2018-07-24T03:38:24.871Z,48.37
2018-07-24T03:39:34.916Z,48.35
2018-07-24T03:40:44.422Z,48.37
2018-07-24T03:41:54.085Z,48.35
2018-07-24T03:43:03.510Z,48.35
2018-07-24T03:44:12.665Z,48.47
2018-07-24T03:45:22.328Z,48.57
2018-07-24T03:46:31.733Z,48.66
2018-07-24T03:47:41.390Z,48.75
2018-07-24T03:48:50.270Z,48.75
2018-07-24T03:49:59.160Z,48.66
2018-07-24T03:51:08.840Z,48.44
2018-07-24T03:52:18.765Z,48.66
2018-07-24T03:53:27.656Z,48.66
2018-07-24T03:54:37.059Z,48.66
2018-07-24T03:55:46.454Z,48.75
2018-07-24T03:56:55.597Z,48.83
2018-07-24T03:58:05.005Z,48.95
2018-07-24T03:59:14.658Z,48.57
2018-07-24T04:00:23.553Z,48.57
2018-07-24T04:01:33.478Z,48.83
2018-07-24T04:02:43.440Z,48.73
2018-07-24T04:03:52.846Z,48.57
2018-07-24T04:05:02.927Z,48.73
2018-07-24T04:06:12.337Z,48.95
2018-07-24T04:07:21.742Z,48.75
2018-07-24T04:08:30.886Z,48.75
2018-07-24T04:09:40.285Z,48.75
2018-07-24T04:10:49.703Z,48.64
2018-07-24T04:11:59.374Z,48.57
2018-07-24T04:13:09.028Z,48.47
2018-07-24T04:14:18.436Z,48.75
2018-07-24T04:15:27.333Z,48.73
2018-07-24T04:16:36.514Z,48.73
2018-07-24T04:17:45.920Z,48.73
2018-07-24T04:18:55.334Z,48.73
2018-07-24T04:20:05.034Z,48.75
2018-07-24T04:21:14.209Z,48.64
2018-07-24T04:22:23.375Z,48.73
2018-07-24T04:23:32.262Z,48.83
2018-07-24T04:24:41.675Z,48.83
2018-07-24T04:25:51.074Z,48.75
2018-07-24T04:27:00.725Z,48.64
2018-07-24T04:28:09.876Z,48.66
2018-07-24T04:29:19.548Z,48.73
2018-07-24T04:30:28.750Z,48.75
2018-07-24T04:31:38.174Z,48.85
2018-07-24T04:32:48.095Z,48.85
2018-07-24T04:33:57.234Z,48.93
2018-07-24T04:35:06.663Z,48.95
2018-07-24T04:36:15.558Z,48.73
2018-07-24T04:37:24.984Z,48.64
2018-07-24T04:38:34.388Z,48.64
2018-07-24T04:39:44.088Z,49.12
2018-07-24T04:40:54.193Z,49.12
2018-07-24T04:42:03.892Z,49.12
2018-07-24T04:43:13.049Z,48.54
2018-07-24T04:44:22.203Z,48.64
2018-07-24T04:45:31.612Z,48.64
2018-07-24T04:46:41.022Z,49.12
2018-07-24T04:47:50.441Z,48.93
2018-07-24T04:48:59.857Z,48.93
2018-07-24T04:50:09.256Z,49.02
2018-07-24T04:51:18.146Z,48.83
2018-07-24T04:52:27.820Z,48.73
2018-07-24T04:53:36.715Z,48.83
2018-07-24T04:54:46.660Z,48.83
2018-07-24T04:55:56.577Z,48.73
2018-07-24T04:57:05.728Z,48.83
2018-07-24T04:58:14.889Z,48.64
2018-07-24T04:59:24.807Z,48.73
2018-07-24T05:00:34.221Z,48.83
2018-07-24T05:01:43.363Z,48.93
2018-07-24T05:02:52.519Z,48.83
2018-07-24T05:04:01.407Z,48.93
2018-07-24T05:05:10.817Z,48.83
2018-07-24T05:06:20.234Z,49.12
2018-07-24T05:07:29.892Z,48.83
2018-07-24T05:08:39.559Z,48.83
2018-07-24T05:09:48.458Z,48.83
2018-07-24T05:10:57.877Z,48.83
2018-07-24T05:12:07.292Z,48.73
2018-07-24T05:13:16.450Z,48.83
2018-07-24T05:14:26.102Z,48.44
2018-07-24T05:15:35.001Z,48.66
2018-07-24T05:16:44.549Z,48.37
2018-07-24T05:17:54.811Z,48.27
2018-07-24T05:19:04.211Z,48.54
2018-07-24T05:20:13.623Z,48.47
2018-07-24T05:21:23.035Z,48.64
2018-07-24T05:22:32.181Z,48.57
2018-07-24T05:23:41.748Z,48.57
2018-07-24T05:24:51.441Z,48.57
2018-07-24T05:26:00.820Z,48.66
2018-07-24T05:27:10.479Z,48.64
2018-07-24T05:28:19.627Z,48.35
2018-07-24T05:29:29.034Z,48.64
2018-07-24T05:30:38.176Z,48.64
2018-07-24T05:31:47.572Z,48.73
2018-07-24T05:32:56.980Z,48.75
2018-07-24T05:34:06.445Z,48.18
2018-07-24T05:35:15.609Z,48.08
2018-07-24T05:36:25.274Z,48.75
2018-07-24T05:37:34.687Z,48.08
2018-07-24T05:38:43.911Z,47.98
2018-07-24T05:39:53.879Z,48.18
2018-07-24T05:41:03.552Z,48.08
2018-07-24T05:42:13.465Z,47.98
2018-07-24T05:43:22.882Z,48.18
2018-07-24T05:44:32.289Z,47.98
2018-07-24T05:45:41.439Z,47.88
2018-07-24T05:46:50.850Z,48.08
2018-07-24T05:48:00.258Z,47.88
2018-07-24T05:49:09.429Z,47.78
2018-07-24T05:50:18.575Z,47.98
2018-07-24T05:51:28.236Z,47.98
2018-07-24T05:52:37.383Z,48.08
2018-07-24T05:53:47.042Z,47.88
2018-07-24T05:54:56.453Z,47.88
2018-07-24T05:56:06.239Z,47.98
2018-07-24T05:57:15.388Z,48.08
2018-07-24T05:58:24.537Z,47.88
2018-07-24T05:59:34.207Z,47.88
2018-07-24T06:00:44.128Z,47.59
2018-07-24T06:01:53.859Z,47.59
2018-07-24T06:03:03.718Z,47.98
2018-07-24T06:04:13.130Z,47.69
2018-07-24T06:05:22.809Z,47.4
2018-07-24T06:06:32.210Z,47.69
2018-07-24T06:07:41.155Z,47.98
2018-07-24T06:08:50.313Z,47.49
2018-07-24T06:09:59.472Z,47.78
2018-07-24T06:11:08.635Z,47.69
2018-07-24T06:12:18.041Z,47.69
2018-07-24T06:13:26.938Z,47.69
2018-07-24T06:14:36.361Z,47.78
2018-07-24T06:15:46.276Z,47.61
2018-07-24T06:16:55.767Z,47.78
2018-07-24T06:18:04.976Z,47.81
2018-07-24T06:19:14.179Z,47.81
2018-07-24T06:20:23.593Z,47.81
2018-07-24T06:21:33.574Z,47.59
2018-07-24T06:22:43.057Z,47.69
2018-07-24T06:23:52.758Z,47.81
2018-07-24T06:25:01.914Z,47.78
2018-07-24T06:26:11.603Z,47.88
2018-07-24T06:27:21.277Z,47.78
2018-07-24T06:28:30.445Z,47.88
2018-07-24T06:29:39.602Z,47.81
2018-07-24T06:30:49.280Z,47.91
2018-07-24T06:31:58.473Z,47.61
2018-07-24T06:33:08.625Z,47.81
2018-07-24T06:34:17.794Z,47.81
2018-07-24T06:35:27.200Z,47.91
2018-07-24T06:36:36.608Z,47.61
2018-07-24T06:37:46.029Z,47.71
2018-07-24T06:38:55.450Z,47.81
2018-07-24T06:40:04.863Z,47.91
2018-07-24T06:41:14.287Z,47.91
2018-07-24T06:42:24.213Z,47.91
2018-07-24T06:43:33.659Z,47.61
2018-07-24T06:44:43.074Z,47.81
2018-07-24T06:45:52.761Z,47.91
2018-07-24T06:47:02.434Z,47.81
2018-07-24T06:48:11.337Z,47.61
2018-07-24T06:49:20.990Z,47.81
2018-07-24T06:50:30.405Z,47.61
2018-07-24T06:51:40.196Z,47.81
2018-07-24T06:52:49.681Z,47.91
2018-07-24T06:53:58.891Z,47.91
2018-07-24T06:55:08.306Z,47.42
2018-07-24T06:56:18.071Z,47.81
2018-07-24T06:57:26.969Z,47.91
2018-07-24T06:58:36.390Z,47.91
2018-07-24T06:59:46.054Z,47.61
2018-07-24T07:00:55.479Z,47.91
2018-07-24T07:02:05.354Z,47.91
2018-07-24T07:03:15.677Z,47.81
2018-07-24T07:04:25.417Z,47.91
2018-07-24T07:05:34.571Z,47.71
2018-07-24T07:06:44.250Z,47.81
2018-07-24T07:07:53.401Z,47.61
2018-07-24T07:09:02.820Z,47.91
2018-07-24T07:10:12.044Z,47.61
2018-07-24T07:11:21.857Z,47.91
2018-07-24T07:12:31.527Z,47.61
2018-07-24T07:13:40.936Z,47.61
2018-07-24T07:14:50.095Z,47.81
2018-07-24T07:15:59.498Z,47.91
2018-07-24T07:17:09.262Z,47.91
2018-07-24T07:18:18.169Z,47.91
2018-07-24T07:19:27.597Z,47.81
2018-07-24T07:20:37.671Z,47.81
2018-07-24T07:21:46.773Z,47.81
2018-07-24T07:22:56.708Z,47.91
2018-07-24T07:24:06.134Z,47.91
2018-07-24T07:25:15.814Z,47.91
2018-07-24T07:26:25.249Z,47.61
2018-07-24T07:27:34.712Z,47.81
2018-07-24T07:28:44.128Z,47.81
2018-07-24T07:29:53.532Z,47.81
2018-07-24T07:31:02.432Z,47.91
2018-07-24T07:32:12.413Z,47.91
2018-07-24T07:33:22.289Z,47.61
2018-07-24T07:34:31.452Z,47.91
2018-07-24T07:35:40.632Z,47.91
2018-07-24T07:36:49.775Z,47.91
2018-07-24T07:37:59.690Z,47.81
2018-07-24T07:39:08.902Z,47.91
2018-07-24T07:40:18.834Z,47.61
2018-07-24T07:41:28.243Z,47.61
2018-07-24T07:42:37.948Z,47.61
2018-07-24T07:43:47.395Z,47.42
2018-07-24T07:44:56.305Z,47.42
2018-07-24T07:46:06.245Z,47.91
2018-07-24T07:47:16.169Z,47.81
2018-07-24T07:48:25.310Z,48
2018-07-24T07:49:34.781Z,47.42
2018-07-24T07:50:43.684Z,47.61
2018-07-24T07:51:53.367Z,47.61
2018-07-24T07:53:03.075Z,47.71
2018-07-24T07:54:12.233Z,47.61
2018-07-24T07:55:21.416Z,47.71
2018-07-24T07:56:30.817Z,47.61
2018-07-24T07:57:39.970Z,47.42
2018-07-24T07:58:49.337Z,47.91
2018-07-24T07:59:58.911Z,47.42
2018-07-24T08:01:08.637Z,47.42
2018-07-24T08:02:17.529Z,47.52
2018-07-24T08:03:27.150Z,47.91
2018-07-24T08:04:36.304Z,47.61
2018-07-24T08:05:45.490Z,47.81
2018-07-24T08:06:54.664Z,47.71
2018-07-24T08:08:04.160Z,47.71
2018-07-24T08:09:13.332Z,47.42
2018-07-24T08:10:23.001Z,47.81
2018-07-24T08:11:32.225Z,47.81
2018-07-24T08:12:41.404Z,47.61
2018-07-24T08:13:50.302Z,47.81
2018-07-24T08:14:59.252Z,47.81
2018-07-24T08:16:08.699Z,47.81
2018-07-24T08:17:18.389Z,47.32
2018-07-24T08:18:27.555Z,47.81
2018-07-24T08:19:36.996Z,47.71
2018-07-24T08:20:46.695Z,47.42
2018-07-24T08:21:56.205Z,47.81
2018-07-24T08:23:05.627Z,47.81
2018-07-24T08:24:14.788Z,47.81
2018-07-24T08:25:24.201Z,47.91
2018-07-24T08:26:33.354Z,47.81
2018-07-24T08:27:43.070Z,47.32
2018-07-24T08:28:53.018Z,47.81
2018-07-24T08:30:02.698Z,47.71
2018-07-24T08:31:12.376Z,47.81
2018-07-24T08:32:21.801Z,47.81
2018-07-24T08:33:31.251Z,47.81
2018-07-24T08:34:40.863Z,47.42
2018-07-24T08:35:50.074Z,47.32
2018-07-24T08:36:59.234Z,47.32
2018-07-24T08:38:08.907Z,47.32
2018-07-24T08:39:18.047Z,47.42
2018-07-24T08:40:26.954Z,47.91
2018-07-24T08:41:36.366Z,47.32
2018-07-24T08:42:45.262Z,47.42
2018-07-24T08:43:54.181Z,47.52
2018-07-24T08:45:03.868Z,47.32
2018-07-24T08:46:13.056Z,47.42
2018-07-24T08:47:21.957Z,47.42
2018-07-24T08:48:31.116Z,47.52
2018-07-24T08:49:40.773Z,47.71
2018-07-24T08:50:50.218Z,47.52
2018-07-24T08:51:59.372Z,47.42
2018-07-24T08:53:08.757Z,47.61
2018-07-24T08:54:20.603Z,47.61
2018-07-24T08:55:32.310Z,47.61
2018-07-24T08:56:43.150Z,47.42
2018-07-24T08:57:52.360Z,47.61
2018-07-24T08:59:01.517Z,47.42
2018-07-24T09:00:10.925Z,47.52
2018-07-24T09:01:20.122Z,47.61
2018-07-24T09:02:29.604Z,47.61
2018-07-24T09:03:39.000Z,47.52
2018-07-24T09:04:48.871Z,47.61
2018-07-24T09:05:58.076Z,47.71
2018-07-24T09:07:07.247Z,47.71
2018-07-24T09:08:16.427Z,47.81
2018-07-24T09:09:26.350Z,47.61
2018-07-24T09:10:35.762Z,47.61
2018-07-24T09:11:44.648Z,47.61
2018-07-24T09:12:54.071Z,47.52
2018-07-24T09:14:03.220Z,47.52
2018-07-24T09:15:12.382Z,47.52
2018-07-24T09:16:22.301Z,47.71
2018-07-24T09:17:31.982Z,47.52
2018-07-24T09:18:41.385Z,47.74
2018-07-24T09:19:50.868Z,47.61
2018-07-24T09:21:00.083Z,47.54
2018-07-24T09:22:09.306Z,47.61
2018-07-24T09:23:18.763Z,47.64
2018-07-24T09:24:28.199Z,47.64
2018-07-24T09:25:37.690Z,47.61
2018-07-24T09:26:47.364Z,47.71
2018-07-24T09:27:57.044Z,47.64
2018-07-24T09:29:06.697Z,47.71
2018-07-24T09:30:15.589Z,47.61
2018-07-24T09:31:24.751Z,47.44
2018-07-24T09:32:34.425Z,47.42
2018-07-24T09:33:43.611Z,47.42
2018-07-24T09:34:53.277Z,47.61
2018-07-24T09:36:02.425Z,47.54
2018-07-24T09:37:11.871Z,47.61
2018-07-24T09:38:21.320Z,47.42
2018-07-24T09:39:30.719Z,47.61
2018-07-24T09:40:40.157Z,47.42
2018-07-24T09:41:49.577Z,47.74
2018-07-24T09:42:58.464Z,47.42
2018-07-24T09:44:07.953Z,47.74
2018-07-24T09:45:17.115Z,47.61
2018-07-24T09:46:26.585Z,47.71
2018-07-24T09:47:36.060Z,47.61
2018-07-24T09:48:45.761Z,47.61
2018-07-24T09:49:54.659Z,47.61
2018-07-24T09:51:04.073Z,47.42
2018-07-24T09:52:13.814Z,47.71
2018-07-24T09:53:23.226Z,47.61
2018-07-24T09:54:32.926Z,47.52
2018-07-24T09:55:42.856Z,47.52
2018-07-24T09:56:52.525Z,47.61
2018-07-24T09:58:01.421Z,47.52
2018-07-24T09:59:10.843Z,47.52
2018-07-24T10:00:19.746Z,47.42
2018-07-24T10:01:28.897Z,47.32
2018-07-24T10:02:38.575Z,47.52
2018-07-24T10:03:48.233Z,47.61
2018-07-24T10:04:57.136Z,47.52
2018-07-24T10:06:06.286Z,47.52
2018-07-24T10:07:15.448Z,47.32
2018-07-24T10:08:24.360Z,47.44
2018-07-24T10:09:33.503Z,47.42
2018-07-24T10:10:42.656Z,47.42
2018-07-24T10:11:51.846Z,47.32
2018-07-24T10:13:00.895Z,47.42
2018-07-24T10:14:09.395Z,47.42
2018-07-24T10:15:18.811Z,47.34
2018-07-24T10:16:28.539Z,47.42
2018-07-24T10:17:38.561Z,47.32
2018-07-24T10:18:48.286Z,47.54
2018-07-24T10:19:57.484Z,47.52
2018-07-24T10:21:06.654Z,47.42
2018-07-24T10:22:16.108Z,47.42
2018-07-24T10:23:26.338Z,47.44
2018-07-24T10:24:35.754Z,47.44
2018-07-24T10:25:45.180Z,47.64
2018-07-24T10:26:54.867Z,47.42
2018-07-24T10:28:04.552Z,47.44
2018-07-24T10:29:14.208Z,47.42
2018-07-24T10:30:23.945Z,47.42
2018-07-24T10:31:33.985Z,47.42
2018-07-24T10:32:43.398Z,47.44
2018-07-24T10:33:53.326Z,47.61
2018-07-24T10:35:02.470Z,47.54
2018-07-24T10:36:11.369Z,47.54
2018-07-24T10:37:20.511Z,47.54
2018-07-24T10:38:30.185Z,47.64
2018-07-24T10:39:39.345Z,47.54
2018-07-24T10:40:48.774Z,47.54
2018-07-24T10:41:57.915Z,47.64
2018-07-24T10:43:07.167Z,47.64
2018-07-24T10:44:17.387Z,47.52
2018-07-24T10:45:26.274Z,47.54
2018-07-24T10:46:35.432Z,47.64
2018-07-24T10:47:44.567Z,47.64
2018-07-24T10:48:53.974Z,47.64
2018-07-24T10:50:03.375Z,47.64
2018-07-24T10:51:12.518Z,47.64
2018-07-24T10:52:22.176Z,47.54
2018-07-24T10:53:31.065Z,47.44
2018-07-24T10:54:40.749Z,47.64
2018-07-24T10:55:50.681Z,47.44
2018-07-24T10:56:59.838Z,47.64
2018-07-24T10:58:09.769Z,47.54
2018-07-24T10:59:19.177Z,47.54
2018-07-24T11:00:28.084Z,47.54
2018-07-24T11:01:37.790Z,47.44
2018-07-24T11:02:47.508Z,47.44
2018-07-24T11:03:56.397Z,47.54
2018-07-24T11:05:05.802Z,47.44
2018-07-24T11:06:15.284Z,47.54
2018-07-24T11:07:24.692Z,47.54
2018-07-24T11:08:33.841Z,47.34
2018-07-24T11:09:43.310Z,47.54
2018-07-24T11:10:53.387Z,47.74
2018-07-24T11:12:02.918Z,47.34
2018-07-24T11:13:12.492Z,47.74
2018-07-24T11:14:21.893Z,47.74
2018-07-24T11:15:31.549Z,47.83
2018-07-24T11:16:40.849Z,47.54
2018-07-24T11:17:50.330Z,47.64
2018-07-24T11:19:00.000Z,47.74
2018-07-24T11:20:09.669Z,47.64
2018-07-24T11:21:19.077Z,47.74
2018-07-24T11:22:28.756Z,47.74
2018-07-24T11:23:38.111Z,47.64
2018-07-24T11:24:47.565Z,47.83
2018-07-24T11:25:56.734Z,47.74
2018-07-24T11:27:06.134Z,47.64
2018-07-24T11:28:15.897Z,47.64
2018-07-24T11:29:25.613Z,47.44
2018-07-24T11:30:35.527Z,47.74
2018-07-24T11:31:44.685Z,47.44
2018-07-24T11:32:53.604Z,47.64
2018-07-24T11:34:03.215Z,47.64
2018-07-24T11:35:12.892Z,46.96
2018-07-24T11:36:23.148Z,46.96
2018-07-24T11:37:32.636Z,47.74
2018-07-24T11:38:41.886Z,47.74
2018-07-24T11:39:50.793Z,47.25
2018-07-24T11:40:59.728Z,46.96
2018-07-24T11:42:09.659Z,47.15
2018-07-24T11:43:18.805Z,47.05
2018-07-24T11:44:28.223Z,47.42
2018-07-24T11:45:37.902Z,47.15
2018-07-24T11:46:47.306Z,47.44
2018-07-24T11:47:56.474Z,47.44
2018-07-24T11:49:05.628Z,47.15
2018-07-24T11:50:14.767Z,47.15
2018-07-24T11:51:23.954Z,46.86
2018-07-24T11:52:33.187Z,47.05
2018-07-24T11:53:42.330Z,47.15
2018-07-24T11:54:52.009Z,47.25
2018-07-24T11:56:01.414Z,47.15
2018-07-24T11:57:10.588Z,47.05
2018-07-24T11:58:19.454Z,47.05
2018-07-24T11:59:28.868Z,47.05
2018-07-24T12:00:38.307Z,47.15
2018-07-24T12:01:48.235Z,47.05
2018-07-24T12:02:57.654Z,47.05
2018-07-24T12:04:06.814Z,46.96
2018-07-24T12:05:16.227Z,47.05
2018-07-24T12:06:25.384Z,46.96
2018-07-24T12:07:34.546Z,46.77
2018-07-24T12:08:44.245Z,46.96
2018-07-24T12:09:53.928Z,46.96
2018-07-24T12:11:03.343Z,46.96
2018-07-24T12:12:12.759Z,47.15
2018-07-24T12:13:22.446Z,46.96
2018-07-24T12:14:31.765Z,47.05
2018-07-24T12:15:41.917Z,46.77
2018-07-24T12:16:51.572Z,46.96
2018-07-24T12:18:01.258Z,47.05
2018-07-24T12:19:10.405Z,47.05
2018-07-24T12:20:19.570Z,47.15
2018-07-24T12:21:29.243Z,47.15
2018-07-24T12:22:38.642Z,47.15
2018-07-24T12:23:48.049Z,47.05
2018-07-24T12:24:57.960Z,47.05
2018-07-24T12:26:07.630Z,47.15
2018-07-24T12:27:17.527Z,47.05
2018-07-24T12:28:27.538Z,47.25
2018-07-24T12:29:36.965Z,47.05
2018-07-24T12:30:46.123Z,47.25
2018-07-24T12:31:55.796Z,47.15
2018-07-24T12:33:04.943Z,47.15
2018-07-24T12:34:14.369Z,47.05
2018-07-24T12:35:23.525Z,47.15
2018-07-24T12:36:32.939Z,46.86
2018-07-24T12:37:42.856Z,46.96
2018-07-24T12:38:52.555Z,47.05
2018-07-24T12:40:01.706Z,46.86
2018-07-24T12:41:11.131Z,46.86
2018-07-24T12:42:20.283Z,47.05
2018-07-24T12:43:29.751Z,46.77
2018-07-24T12:44:39.549Z,46.86
2018-07-24T12:45:48.712Z,46.86
2018-07-24T12:46:57.866Z,47.05
2018-07-24T12:48:06.502Z,46.96
2018-07-24T12:49:15.902Z,46.96
2018-07-24T12:50:25.055Z,47.05
2018-07-24T12:51:34.473Z,46.86
2018-07-24T12:52:43.881Z,46.77
2018-07-24T12:53:53.542Z,46.86
2018-07-24T12:55:02.953Z,46.77
2018-07-24T12:56:12.412Z,46.96
2018-07-24T12:57:21.818Z,46.77
2018-07-24T12:58:31.237Z,46.86
2018-07-24T12:59:40.653Z,46.96
2018-07-24T13:00:49.543Z,47.15
2018-07-24T13:01:59.246Z,46.96
2018-07-24T13:03:08.648Z,46.96
2018-07-24T13:04:18.275Z,46.77
2018-07-24T13:05:26.904Z,46.96
2018-07-24T13:06:36.582Z,46.96
2018-07-24T13:07:45.998Z,46.96
2018-07-24T13:08:55.149Z,46.96
2018-07-24T13:10:04.716Z,46.96
2018-07-24T13:11:14.743Z,46.96
2018-07-24T13:12:24.143Z,46.96
2018-07-24T13:13:33.298Z,46.96
2018-07-24T13:14:42.435Z,46.96
2018-07-24T13:15:51.841Z,46.96
2018-07-24T13:17:00.994Z,46.96
2018-07-24T13:18:10.148Z,47.05
2018-07-24T13:19:19.300Z,46.86
2018-07-24T13:20:28.798Z,46.96
2018-07-24T13:21:37.712Z,47.05
2018-07-24T13:22:47.104Z,46.77
2018-07-24T13:23:56.332Z,46.77
2018-07-24T13:25:05.488Z,46.77
2018-07-24T13:26:14.898Z,46.77
2018-07-24T13:27:24.720Z,46.67
2018-07-24T13:28:34.646Z,46.67
2018-07-24T13:29:44.076Z,46.67
2018-07-24T13:30:53.737Z,46.67
2018-07-24T13:32:03.235Z,46.67
2018-07-24T13:33:12.604Z,46.77
2018-07-24T13:34:22.267Z,46.77
2018-07-24T13:35:31.161Z,46.77
2018-07-24T13:36:40.566Z,46.77
2018-07-24T13:37:49.727Z,46.57
2018-07-24T13:38:58.915Z,46.67
2018-07-24T13:40:08.335Z,46.86
2018-07-24T13:41:18.005Z,47.05
2018-07-24T13:42:27.671Z,46.96
2018-07-24T13:43:37.071Z,46.96
2018-07-24T13:44:46.222Z,46.96
2018-07-24T13:45:55.993Z,46.96
2018-07-24T13:47:05.814Z,46.96
2018-07-24T13:48:15.245Z,47.08
2018-07-24T13:49:24.914Z,46.96
2018-07-24T13:50:34.077Z,46.77
2018-07-24T13:51:43.272Z,46.88
2018-07-24T13:52:52.958Z,46.88
2018-07-24T13:54:02.172Z,46.88
2018-07-24T13:55:11.333Z,46.96
2018-07-24T13:56:20.235Z,46.98
2018-07-24T13:57:29.381Z,46.67
2018-07-24T13:58:38.788Z,46.98
2018-07-24T13:59:48.207Z,46.96
2018-07-24T14:00:57.404Z,46.96
2018-07-24T14:02:06.308Z,46.96
2018-07-24T14:03:15.479Z,46.96
2018-07-24T14:04:25.198Z,46.98
2018-07-24T14:05:34.957Z,46.96
2018-07-24T14:06:44.980Z,46.67
2018-07-24T14:07:54.395Z,46.69
2018-07-24T14:09:03.556Z,46.88
2018-07-24T14:10:13.289Z,46.78
2018-07-24T14:11:22.697Z,46.98
2018-07-24T14:12:31.598Z,46.78
2018-07-24T14:13:41.273Z,46.78
2018-07-24T14:14:51.219Z,46.59
2018-07-24T14:16:00.921Z,46.69
2018-07-24T14:17:10.616Z,46.69
2018-07-24T14:18:20.030Z,46.78
2018-07-24T14:19:29.439Z,46.78
2018-07-24T14:20:39.108Z,46.59
2018-07-24T14:21:48.767Z,46.59
2018-07-24T14:22:58.260Z,46.59
2018-07-24T14:24:07.453Z,46.5
2018-07-24T14:25:16.605Z,46.78
2018-07-24T14:26:25.767Z,46.69
2018-07-24T14:27:35.185Z,46.69
2018-07-24T14:28:44.342Z,46.69
2018-07-24T14:29:53.756Z,46.78
2018-07-24T14:31:02.645Z,46.88
2018-07-24T14:32:12.193Z,46.88
2018-07-24T14:33:21.626Z,46.98
2018-07-24T14:34:31.050Z,46.5
2018-07-24T14:35:40.478Z,46.5
2018-07-24T14:36:49.951Z,46.59
2018-07-24T14:37:59.861Z,46.59
2018-07-24T14:39:09.303Z,46.59
2018-07-24T14:40:18.196Z,46.3
2018-07-24T14:41:27.823Z,46.4
2018-07-24T14:42:37.508Z,46.4
2018-07-24T14:43:46.667Z,46.3
2018-07-24T14:44:56.084Z,46.4
2018-07-24T14:46:05.753Z,46.4
2018-07-24T14:47:15.439Z,46.4
2018-07-24T14:48:24.598Z,46.4
2018-07-24T14:49:33.749Z,46.4
2018-07-24T14:50:43.168Z,46.4
2018-07-24T14:51:52.583Z,46.4
2018-07-24T14:53:02.000Z,46.4
2018-07-24T14:54:11.663Z,46.5
2018-07-24T14:55:21.078Z,46.2
2018-07-24T14:56:30.223Z,46.4